Melody — 3FBS7 — position and weather

sailwx.info

Track history (hours):
 
Tides and Currents Weather Stations Pressure Air Temp Water Temp Dewpoint Dewpoint Depression Visibility Wind Speed Wind Dir Waves Ship Positions

Melody

Operator: Mediterranean Shipping Company

Last reported at 2019-Jul-08 03:58 UTC. Time now 2019-Jul-22 14:27 UTC.
Position N 22°54' W 088°19'.
Warning: this ship's position is 14 days out of date.

Length 225 m; draft 11.5 m.

Type: Tanker. MMSI: 371669000.

Date/timePositionNaut miles runAvg speedWind from/ knotsBaromVisibWave heightAir tempDewpointWater temp
2019-Jul-08 03:58N 22°54' W 088°19'4815.8
2019-Jul-08 00:55N 23°20' W 089°03'44114.5
2019-Jul-06 18:32N 28°53' W 094°26'514.7
2019-Jul-06 18:13N 28°58' W 094°26'414.7
2019-Jul-06 17:56N 29°02' W 094°25'1013.0
2019-Jul-06 17:08N 29°11' W 094°30'212.5
2019-Jul-06 16:59N 29°13' W 094°32'5 9.8
2019-Jul-06 16:29N 29°17' W 094°35'511.3
2019-Jul-06 16:00N 29°20' W 094°40'611.3
2019-Jul-06 15:31N 29°21' W 094°47'510.3
2019-Jul-06 15:00N 29°25' W 094°50'5 9.9
2019-Jul-06 14:31N 29°30' W 094°52'510.4
2019-Jul-06 14:01N 29°34' W 094°55'510.5
2019-Jul-06 13:31N 29°39' W 094°58'4 7.4
2019-Jul-06 13:00N 29°42' W 094°60'3 6.0
2019-Jul-06 12:30N 29°44' W 095°03'3 6.0
2019-Jul-06 12:00N 29°45' W 095°06'2 4.7
2019-Jul-06 11:30N 29°44' W 095°08'0 0.0
2019-Jul-04 15:32N 29°44' W 095°08'0 0.2
2019-Jul-04 15:27N 29°44' W 095°08'1 2.0
2019-Jul-04 14:44N 29°45' W 095°06'1 6.0
2019-Jul-04 14:30N 29°46' W 095°05'4 7.0
2019-Jul-04 13:58N 29°44' W 095°02'4 7.8
2019-Jul-04 13:30N 29°41' W 094°59'611.8
2019-Jul-04 13:00N 29°36' W 094°56'713.0
2019-Jul-04 12:30N 29°30' W 094°52'714.5
2019-Jul-04 12:00N 29°23' W 094°49'713.7
2019-Jul-04 11:30N 29°21' W 094°42'713.3
2019-Jul-04 11:00N 29°17' W 094°35'5 8.8
2019-Jul-04 10:25N 29°14' W 094°31'6 5.5
2019-Jul-04 09:15N 29°08' W 094°35'0 0.4
2019-Jul-04 08:41N 29°08' W 094°34'0 0.1
2019-Jul-04 08:29N 29°08' W 094°34'0 0.0
2019-Jul-04 07:53N 29°08' W 094°34'0 0.0
2019-Jul-04 07:20N 29°08' W 094°34'0 0.0
2019-Jul-04 06:35N 29°08' W 094°34'0 0.0
2019-Jul-04 06:02N 29°08' W 094°34'0 0.0
2019-Jul-04 05:53N 29°08' W 094°34'0 0.0
2019-Jul-04 05:29N 29°08' W 094°34'0 0.0
2019-Jul-04 04:59N 29°08' W 094°34'0 0.0
2019-Jul-04 04:29N 29°08' W 094°34'0 0.0
2019-Jul-04 03:53N 29°08' W 094°34'0 0.0
2019-Jul-04 02:59N 29°08' W 094°34'0 0.0
2019-Jul-04 01:41N 29°08' W 094°34'0 0.0
2019-Jul-04 01:11N 29°08' W 094°34'0 0.0
2019-Jul-04 00:56N 29°08' W 094°34'0 0.0
2019-Jul-04 00:14N 29°08' W 094°34'0 0.0
2019-Jul-03 23:53N 29°08' W 094°34'0 0.0
2019-Jul-03 23:29N 29°08' W 094°34'0 0.0
2019-Jul-03 22:50N 29°08' W 094°34'0 0.0
2019-Jul-03 22:23N 29°08' W 094°34'0 0.0
2019-Jul-03 21:56N 29°08' W 094°34'0 0.0
2019-Jul-03 21:29N 29°08' W 094°34'0 0.0
2019-Jul-03 20:59N 29°08' W 094°34'0 0.0
2019-Jul-03 20:29N 29°08' W 094°34'0 0.0
2019-Jul-03 19:56N 29°08' W 094°34'0 0.0
2019-Jul-03 19:29N 29°08' W 094°34'0 0.0
2019-Jul-03 18:59N 29°08' W 094°34'0 0.0
2019-Jul-03 18:29N 29°08' W 094°34'0 0.0
2019-Jul-03 17:59N 29°08' W 094°34'0 0.0
2019-Jul-03 17:29N 29°08' W 094°34'0 0.0
2019-Jul-03 16:59N 29°08' W 094°34'0 0.0
2019-Jul-03 16:11N 29°08' W 094°34'0 0.0
2019-Jul-03 15:53N 29°08' W 094°34'0 0.0
2019-Jul-03 15:29N 29°08' W 094°34'0 0.0
2019-Jul-03 14:56N 29°08' W 094°34'0 0.0
2019-Jul-03 14:23N 29°08' W 094°34'0 0.0
2019-Jul-03 13:23N 29°08' W 094°34'0 0.0
2019-Jul-03 11:49N 29°08' W 094°34'0 0.0
2019-Jul-03 11:28N 29°08' W 094°34'0 0.0
2019-Jul-03 10:17N 29°08' W 094°34'0 0.0
2019-Jul-03 09:11N 29°08' W 094°34'0 0.0
2019-Jul-03 08:59N 29°08' W 094°34'0 0.0
2019-Jul-03 08:23N 29°08' W 094°34'0 0.0
2019-Jul-03 07:40N 29°08' W 094°34'0 0.0
2019-Jul-03 07:25N 29°08' W 094°34'0 0.0
2019-Jul-03 06:58N 29°08' W 094°34'0 0.0
2019-Jul-03 06:11N 29°08' W 094°34'0 0.0
2019-Jul-03 04:59N 29°08' W 094°34'0 0.0
2019-Jul-03 04:16N 29°08' W 094°34'0 0.0
2019-Jul-03 03:47N 29°08' W 094°34'0 0.0
2019-Jul-03 03:22N 29°08' W 094°34'0 0.0
2019-Jul-03 02:43N 29°08' W 094°34'0 0.0
2019-Jul-03 01:50N 29°08' W 094°35'0 0.0
2019-Jul-03 01:19N 29°08' W 094°35'0 0.0
2019-Jul-03 00:37N 29°08' W 094°35'0 0.1
2019-Jul-03 00:28N 29°08' W 094°35'0 0.1
2019-Jul-02 23:56N 29°08' W 094°34'0 0.0
2019-Jul-02 23:25N 29°08' W 094°34'0 0.2
2019-Jul-02 22:58N 29°08' W 094°35'0 0.0
2019-Jul-02 22:04N 29°08' W 094°35'0 0.3
2019-Jul-02 21:58N 29°08' W 094°35'0 0.2
2019-Jul-02 21:25N 29°08' W 094°34'0 0.1
2019-Jul-02 20:52N 29°08' W 094°35'0 0.1
2019-Jul-02 20:26N 29°08' W 094°35'0 0.0
2019-Jul-02 19:37N 29°08' W 094°35'0 0.0
2019-Jul-02 13:40N 29°08' W 094°34'0 0.0
2019-Jul-02 13:13N 29°08' W 094°34'0 0.0
2019-Jul-02 12:46N 29°08' W 094°34'0 0.0
2019-Jul-02 12:22N 29°08' W 094°34'0 0.0
2019-Jul-02 11:31N 29°08' W 094°34'0 0.0
2019-Jul-02 11:19N 29°08' W 094°34'0 0.0
2019-Jul-02 10:58N 29°08' W 094°34'0 0.0
2019-Jul-02 10:28N 29°08' W 094°34'0 0.0
2019-Jul-02 09:58N 29°08' W 094°34'0 0.0
2019-Jul-02 09:28N 29°08' W 094°34'0 0.0
2019-Jul-02 08:22N 29°08' W 094°34'0 0.0
2019-Jul-02 07:31N 29°08' W 094°34'0 0.1
2019-Jul-02 07:25N 29°08' W 094°34'0 0.0
2019-Jul-02 06:58N 29°08' W 094°34'0 0.0
2019-Jul-02 06:28N 29°08' W 094°34'0 0.0
2019-Jul-02 05:43N 29°08' W 094°34'0 0.0
2019-Jul-02 05:25N 29°08' W 094°34'0 0.0
2019-Jul-02 04:22N 29°08' W 094°34'0 0.0
2019-Jul-02 03:58N 29°08' W 094°34'0 0.0
2019-Jul-02 03:28N 29°08' W 094°34'0 0.0
2019-Jul-02 02:37N 29°08' W 094°35'0 0.0
2019-Jul-02 01:55N 29°08' W 094°35'0 0.0
2019-Jul-02 01:28N 29°08' W 094°35'0 0.0
2019-Jul-02 00:52N 29°08' W 094°35'0 0.0
2019-Jul-02 00:28N 29°08' W 094°35'0 0.0
2019-Jul-01 23:43N 29°08' W 094°35'0 0.0
2019-Jul-01 23:28N 29°08' W 094°35'0 0.0
2019-Jul-01 17:16N 29°08' W 094°34'0 0.1
2019-Jul-01 16:58N 29°08' W 094°34'0 0.1
2019-Jul-01 16:16N 29°08' W 094°34'0 0.0
2019-Jul-01 15:55N 29°08' W 094°34'0 0.0
2019-Jul-01 15:28N 29°08' W 094°34'0 0.0
2019-Jul-01 14:49N 29°08' W 094°34'0 0.0
2019-Jul-01 14:19N 29°08' W 094°34'0 0.1
2019-Jul-01 13:28N 29°08' W 094°34'0 0.2
2019-Jul-01 12:58N 29°08' W 094°34'0 0.0
2019-Jul-01 12:19N 29°08' W 094°34'0 0.0
2019-Jul-01 10:34N 29°08' W 094°34'0 0.1
2019-Jul-01 10:25N 29°08' W 094°34'0 0.0
2019-Jul-01 09:43N 29°08' W 094°34'0 0.0
2019-Jul-01 09:28N 29°08' W 094°34'0 0.0
2019-Jul-01 08:58N 29°08' W 094°34'0 0.0
2019-Jul-01 07:55N 29°08' W 094°34'0 0.0
2019-Jul-01 07:22N 29°08' W 094°34'0 0.0
2019-Jul-01 06:58N 29°08' W 094°34'0 0.0
2019-Jul-01 06:22N 29°08' W 094°34'0 0.0
2019-Jul-01 05:37N 29°08' W 094°34'0 0.0
2019-Jul-01 04:58N 29°08' W 094°34'0 0.0
2019-Jul-01 04:22N 29°08' W 094°34'0 0.0
2019-Jul-01 03:46N 29°08' W 094°34'0 0.0
2019-Jul-01 03:28N 29°08' W 094°34'0 0.0
2019-Jul-01 02:46N 29°08' W 094°34'0 0.0
2019-Jul-01 02:22N 29°08' W 094°34'0 0.0
2019-Jul-01 01:58N 29°08' W 094°35'0 0.0
2019-Jul-01 01:28N 29°08' W 094°35'0 0.0
2019-Jul-01 00:52N 29°08' W 094°35'0 0.0
2019-Jul-01 00:25N 29°08' W 094°35'0 0.0
2019-Jun-30 23:58N 29°08' W 094°35'0 0.0
2019-Jun-30 23:28N 29°08' W 094°35'0 0.0
2019-Jun-30 17:25N 29°08' W 094°34'0 0.1
2019-Jun-30 16:52N 29°08' W 094°34'0 0.0
2019-Jun-30 16:28N 29°08' W 094°34'0 0.0
2019-Jun-30 15:58N 29°08' W 094°34'0 0.0
2019-Jun-30 15:10N 29°08' W 094°34'0 0.0
2019-Jun-30 14:58N 29°08' W 094°34'0 0.0
2019-Jun-30 14:28N 29°08' W 094°34'0 0.0
2019-Jun-30 13:58N 29°08' W 094°34'0 0.0
2019-Jun-30 13:28N 29°08' W 094°34'0 0.0
2019-Jun-30 12:58N 29°08' W 094°34'0 0.1
2019-Jun-30 12:19N 29°08' W 094°34'0 0.0
2019-Jun-30 11:58N 29°08' W 094°34'0 0.1
2019-Jun-30 11:22N 29°08' W 094°34'0 0.0
2019-Jun-30 10:52N 29°08' W 094°34'0 0.0
2019-Jun-30 10:19N 29°08' W 094°34'0 0.3
2019-Jun-30 09:58N 29°08' W 094°34'0 0.0
2019-Jun-30 08:22N 29°08' W 094°34'0 0.3
2019-Jun-30 07:59N 29°08' W 094°34'1 2.7
2019-Jun-30 07:29N 29°07' W 094°33'  
Track history (hours):
 
Tides and Currents Weather Stations Pressure Air Temp Water Temp Dewpoint Dewpoint Depression Visibility Wind Speed Wind Dir Waves Ship Positions

Melody

Operator: Mediterranean Shipping Company

Last reported at 2019-Jul-08 03:58 UTC. Time now 2019-Jul-22 14:27 UTC.
Position N 22°54' W 088°19'.
Warning: this ship's position is 14 days out of date.

Length 225 m; draft 11.5 m.

Type: Tanker. MMSI: 371669000.

Date/timePositionNaut miles runAvg speedWind from/ knotsBaromVisibWave heightAir tempDewpointWater temp
2019-Jul-08 03:58N 22°54' W 088°19'4815.8
2019-Jul-08 00:55N 23°20' W 089°03'44114.5
2019-Jul-06 18:32N 28°53' W 094°26'514.7
2019-Jul-06 18:13N 28°58' W 094°26'414.7
2019-Jul-06 17:56N 29°02' W 094°25'1013.0
2019-Jul-06 17:08N 29°11' W 094°30'212.5
2019-Jul-06 16:59N 29°13' W 094°32'5 9.8
2019-Jul-06 16:29N 29°17' W 094°35'511.3
2019-Jul-06 16:00N 29°20' W 094°40'611.3
2019-Jul-06 15:31N 29°21' W 094°47'510.3
2019-Jul-06 15:00N 29°25' W 094°50'5 9.9
2019-Jul-06 14:31N 29°30' W 094°52'510.4
2019-Jul-06 14:01N 29°34' W 094°55'510.5
2019-Jul-06 13:31N 29°39' W 094°58'4 7.4
2019-Jul-06 13:00N 29°42' W 094°60'3 6.0
2019-Jul-06 12:30N 29°44' W 095°03'3 6.0
2019-Jul-06 12:00N 29°45' W 095°06'2 4.7
2019-Jul-06 11:30N 29°44' W 095°08'0 0.0
2019-Jul-04 15:32N 29°44' W 095°08'0 0.2
2019-Jul-04 15:27N 29°44' W 095°08'1 2.0
2019-Jul-04 14:44N 29°45' W 095°06'1 6.0
2019-Jul-04 14:30N 29°46' W 095°05'4 7.0
2019-Jul-04 13:58N 29°44' W 095°02'4 7.8
2019-Jul-04 13:30N 29°41' W 094°59'611.8
2019-Jul-04 13:00N 29°36' W 094°56'713.0
2019-Jul-04 12:30N 29°30' W 094°52'714.5
2019-Jul-04 12:00N 29°23' W 094°49'713.7
2019-Jul-04 11:30N 29°21' W 094°42'713.3
2019-Jul-04 11:00N 29°17' W 094°35'5 8.8
2019-Jul-04 10:25N 29°14' W 094°31'6 5.5
2019-Jul-04 09:15N 29°08' W 094°35'0 0.4
2019-Jul-04 08:41N 29°08' W 094°34'0 0.1
2019-Jul-04 08:29N 29°08' W 094°34'0 0.0
2019-Jul-04 07:53N 29°08' W 094°34'0 0.0
2019-Jul-04 07:20N 29°08' W 094°34'0 0.0
2019-Jul-04 06:35N 29°08' W 094°34'0 0.0
2019-Jul-04 06:02N 29°08' W 094°34'0 0.0
2019-Jul-04 05:53N 29°08' W 094°34'0 0.0
2019-Jul-04 05:29N 29°08' W 094°34'0 0.0
2019-Jul-04 04:59N 29°08' W 094°34'0 0.0
2019-Jul-04 04:29N 29°08' W 094°34'0 0.0
2019-Jul-04 03:53N 29°08' W 094°34'0 0.0
2019-Jul-04 02:59N 29°08' W 094°34'0 0.0
2019-Jul-04 01:41N 29°08' W 094°34'0 0.0
2019-Jul-04 01:11N 29°08' W 094°34'0 0.0
2019-Jul-04 00:56N 29°08' W 094°34'0 0.0
2019-Jul-04 00:14N 29°08' W 094°34'0 0.0
2019-Jul-03 23:53N 29°08' W 094°34'0 0.0
2019-Jul-03 23:29N 29°08' W 094°34'0 0.0
2019-Jul-03 22:50N 29°08' W 094°34'0 0.0
2019-Jul-03 22:23N 29°08' W 094°34'0 0.0
2019-Jul-03 21:56N 29°08' W 094°34'0 0.0
2019-Jul-03 21:29N 29°08' W 094°34'0 0.0
2019-Jul-03 20:59N 29°08' W 094°34'0 0.0
2019-Jul-03 20:29N 29°08' W 094°34'0 0.0
2019-Jul-03 19:56N 29°08' W 094°34'0 0.0
2019-Jul-03 19:29N 29°08' W 094°34'0 0.0
2019-Jul-03 18:59N 29°08' W 094°34'0 0.0
2019-Jul-03 18:29N 29°08' W 094°34'0 0.0
2019-Jul-03 17:59N 29°08' W 094°34'0 0.0
2019-Jul-03 17:29N 29°08' W 094°34'0 0.0
2019-Jul-03 16:59N 29°08' W 094°34'0 0.0
2019-Jul-03 16:11N 29°08' W 094°34'0 0.0
2019-Jul-03 15:53N 29°08' W 094°34'0 0.0
2019-Jul-03 15:29N 29°08' W 094°34'0 0.0
2019-Jul-03 14:56N 29°08' W 094°34'0 0.0
2019-Jul-03 14:23N 29°08' W 094°34'0 0.0
2019-Jul-03 13:23N 29°08' W 094°34'0 0.0
2019-Jul-03 11:49N 29°08' W 094°34'0 0.0
2019-Jul-03 11:28N 29°08' W 094°34'0 0.0
2019-Jul-03 10:17N 29°08' W 094°34'0 0.0
2019-Jul-03 09:11N 29°08' W 094°34'0 0.0
2019-Jul-03 08:59N 29°08' W 094°34'0 0.0
2019-Jul-03 08:23N 29°08' W 094°34'0 0.0
2019-Jul-03 07:40N 29°08' W 094°34'0 0.0
2019-Jul-03 07:25N 29°08' W 094°34'0 0.0
2019-Jul-03 06:58N 29°08' W 094°34'0 0.0
2019-Jul-03 06:11N 29°08' W 094°34'0 0.0
2019-Jul-03 04:59N 29°08' W 094°34'0 0.0
2019-Jul-03 04:16N 29°08' W 094°34'0 0.0
2019-Jul-03 03:47N 29°08' W 094°34'0 0.0
2019-Jul-03 03:22N 29°08' W 094°34'0 0.0
2019-Jul-03 02:43N 29°08' W 094°34'0 0.0
2019-Jul-03 01:50N 29°08' W 094°35'0 0.0
2019-Jul-03 01:19N 29°08' W 094°35'0 0.0
2019-Jul-03 00:37N 29°08' W 094°35'0 0.1
2019-Jul-03 00:28N 29°08' W 094°35'0 0.1
2019-Jul-02 23:56N 29°08' W 094°34'0 0.0
2019-Jul-02 23:25N 29°08' W 094°34'0 0.2
2019-Jul-02 22:58N 29°08' W 094°35'0 0.0
2019-Jul-02 22:04N 29°08' W 094°35'0 0.3
2019-Jul-02 21:58N 29°08' W 094°35'0 0.2
2019-Jul-02 21:25N 29°08' W 094°34'0 0.1
2019-Jul-02 20:52N 29°08' W 094°35'0 0.1
2019-Jul-02 20:26N 29°08' W 094°35'0 0.0
2019-Jul-02 19:37N 29°08' W 094°35'0 0.0
2019-Jul-02 13:40N 29°08' W 094°34'0 0.0
2019-Jul-02 13:13N 29°08' W 094°34'0 0.0
2019-Jul-02 12:46N 29°08' W 094°34'0 0.0
2019-Jul-02 12:22N 29°08' W 094°34'0 0.0
2019-Jul-02 11:31N 29°08' W 094°34'0 0.0
2019-Jul-02 11:19N 29°08' W 094°34'0 0.0
2019-Jul-02 10:58N 29°08' W 094°34'0 0.0
2019-Jul-02 10:28N 29°08' W 094°34'0 0.0
2019-Jul-02 09:58N 29°08' W 094°34'0 0.0
2019-Jul-02 09:28N 29°08' W 094°34'0 0.0
2019-Jul-02 08:22N 29°08' W 094°34'0 0.0
2019-Jul-02 07:31N 29°08' W 094°34'0 0.1
2019-Jul-02 07:25N 29°08' W 094°34'0 0.0
2019-Jul-02 06:58N 29°08' W 094°34'0 0.0
2019-Jul-02 06:28N 29°08' W 094°34'0 0.0
2019-Jul-02 05:43N 29°08' W 094°34'0 0.0
2019-Jul-02 05:25N 29°08' W 094°34'0 0.0
2019-Jul-02 04:22N 29°08' W 094°34'0 0.0
2019-Jul-02 03:58N 29°08' W 094°34'0 0.0
2019-Jul-02 03:28N 29°08' W 094°34'0 0.0
2019-Jul-02 02:37N 29°08' W 094°35'0 0.0
2019-Jul-02 01:55N 29°08' W 094°35'0 0.0
2019-Jul-02 01:28N 29°08' W 094°35'0 0.0
2019-Jul-02 00:52N 29°08' W 094°35'0 0.0
2019-Jul-02 00:28N 29°08' W 094°35'0 0.0
2019-Jul-01 23:43N 29°08' W 094°35'0 0.0
2019-Jul-01 23:28N 29°08' W 094°35'0 0.0
2019-Jul-01 17:16N 29°08' W 094°34'0 0.1
2019-Jul-01 16:58N 29°08' W 094°34'0 0.1
2019-Jul-01 16:16N 29°08' W 094°34'0 0.0
2019-Jul-01 15:55N 29°08' W 094°34'0 0.0
2019-Jul-01 15:28N 29°08' W 094°34'0 0.0
2019-Jul-01 14:49N 29°08' W 094°34'0 0.0
2019-Jul-01 14:19N 29°08' W 094°34'0 0.1
2019-Jul-01 13:28N 29°08' W 094°34'0 0.2
2019-Jul-01 12:58N 29°08' W 094°34'0 0.0
2019-Jul-01 12:19N 29°08' W 094°34'0 0.0
2019-Jul-01 10:34N 29°08' W 094°34'0 0.1
2019-Jul-01 10:25N 29°08' W 094°34'0 0.0
2019-Jul-01 09:43N 29°08' W 094°34'0 0.0
2019-Jul-01 09:28N 29°08' W 094°34'0 0.0
2019-Jul-01 08:58N 29°08' W 094°34'0 0.0
2019-Jul-01 07:55N 29°08' W 094°34'0 0.0
2019-Jul-01 07:22N 29°08' W 094°34'0 0.0
2019-Jul-01 06:58N 29°08' W 094°34'0 0.0
2019-Jul-01 06:22N 29°08' W 094°34'0 0.0
2019-Jul-01 05:37N 29°08' W 094°34'0 0.0
2019-Jul-01 04:58N 29°08' W 094°34'0 0.0
2019-Jul-01 04:22N 29°08' W 094°34'0 0.0
2019-Jul-01 03:46N 29°08' W 094°34'0 0.0
2019-Jul-01 03:28N 29°08' W 094°34'0 0.0
2019-Jul-01 02:46N 29°08' W 094°34'0 0.0
2019-Jul-01 02:22N 29°08' W 094°34'0 0.0
2019-Jul-01 01:58N 29°08' W 094°35'0 0.0
2019-Jul-01 01:28N 29°08' W 094°35'0 0.0
2019-Jul-01 00:52N 29°08' W 094°35'0 0.0
2019-Jul-01 00:25N 29°08' W 094°35'0 0.0
2019-Jun-30 23:58N 29°08' W 094°35'0 0.0
2019-Jun-30 23:28N 29°08' W 094°35'0 0.0
2019-Jun-30 17:25N 29°08' W 094°34'0 0.1
2019-Jun-30 16:52N 29°08' W 094°34'0 0.0
2019-Jun-30 16:28N 29°08' W 094°34'0 0.0
2019-Jun-30 15:58N 29°08' W 094°34'0 0.0
2019-Jun-30 15:10N 29°08' W 094°34'0 0.0
2019-Jun-30 14:58N 29°08' W 094°34'0 0.0
2019-Jun-30 14:28N 29°08' W 094°34'0 0.0
2019-Jun-30 13:58N 29°08' W 094°34'0 0.0
2019-Jun-30 13:28N 29°08' W 094°34'0 0.0
2019-Jun-30 12:58N 29°08' W 094°34'0 0.1
2019-Jun-30 12:19N 29°08' W 094°34'0 0.0
2019-Jun-30 11:58N 29°08' W 094°34'0 0.1
2019-Jun-30 11:22N 29°08' W 094°34'0 0.0
2019-Jun-30 10:52N 29°08' W 094°34'0 0.0
2019-Jun-30 10:19N 29°08' W 094°34'0 0.3
2019-Jun-30 09:58N 29°08' W 094°34'0 0.0
2019-Jun-30 08:22N 29°08' W 094°34'0 0.3
2019-Jun-30 07:59N 29°08' W 094°34'1 2.7
2019-Jun-30 07:29N 29°07' W 094°33'  

Dump ship's entire track history